Time;durP1;ratioP1;P1;durP2;ratioP2;P2;SDS_P1;SDS_P2;PMS_P1;PMS_P2;Temp;Humidity;BMP_temperature;BMP_pressure;BME280_temperature;BME280_humidity;BME280_pressure;Samples;Min_cycle;Max_cycle;Signal;HPM_P1;HPM_P2
2022/10/27 00:00:19;;;;;;;7.60;4.80;;;14.10;99.90;;;;;;2615840;54;20210;-79
2022/10/27 00:06:07;;;;;;;6.43;3.70;;;13.70;99.90;;;;;;2617255;54;20131;-81
2022/10/27 00:11:55;;;;;;;5.67;3.67;;;13.60;99.90;;;;;;2616403;39;20771;-79
2022/10/27 00:17:42;;;;;;;5.37;4.47;;;13.60;99.90;;;;;;2614632;46;20970;-79
2022/10/27 00:26:51;;;;;;;6.00;4.37;;;13.70;99.90;;;;;;2615318;54;20412;-79
2022/10/27 00:36:09;;;;;;;4.80;3.87;;;13.60;99.90;;;;;;2614400;39;20927;-78
2022/10/27 00:41:57;;;;;;;5.90;4.13;;;13.80;99.90;;;;;;2616152;54;20983;-79
2022/10/27 00:47:45;;;;;;;9.00;4.47;;;14.00;99.90;;;;;;2616866;39;20790;-79
2022/10/27 00:53:33;;;;;;;10.90;4.53;;;14.00;99.90;;;;;;2617072;54;20492;-78
2022/10/27 00:59:21;;;;;;;11.50;4.30;;;13.90;99.90;;;;;;2616769;54;20351;-76
2022/10/27 01:05:19;;;;;;;10.97;3.90;;;14.30;99.90;;;;;;2616374;54;20915;-77
2022/10/27 01:11:07;;;;;;;5.43;4.30;;;14.80;99.90;;;;;;2616570;54;20462;-77
2022/10/27 01:30:09;;;;;;;5.73;2.70;;;15.00;99.90;;;;;;2615627;54;20403;-77
2022/10/27 01:36:04;;;;;;;6.90;3.93;;;15.10;99.90;;;;;;2615729;54;20355;-77
2022/10/27 01:48:36;;;;;;;4.67;3.93;;;15.20;99.90;;;;;;2618861;54;20912;-81
2022/10/27 01:54:24;;;;;;;10.77;3.50;;;15.20;99.90;;;;;;2617900;54;20451;-79
2022/10/27 02:00:13;;;;;;;5.43;3.13;;;15.20;99.90;;;;;;2618067;54;20150;-79
2022/10/27 02:06:01;;;;;;;4.70;3.37;;;15.20;99.90;;;;;;2616974;54;20363;-81
2022/10/27 02:11:51;;;;;;;4.57;3.53;;;15.20;99.90;;;;;;2618186;54;20415;-79
2022/10/27 02:17:42;;;;;;;14.33;4.30;;;15.10;99.90;;;;;;2618028;39;20712;-79
2022/10/27 02:23:30;;;;;;;4.47;3.40;;;15.10;99.90;;;;;;2617666;54;20366;-79
2022/10/27 02:35:59;;;;;;;5.07;3.10;;;15.00;99.90;;;;;;2617620;54;20387;-80
2022/10/27 02:41:47;;;;;;;6.03;3.63;;;15.10;99.90;;;;;;2618381;54;20394;-81
2022/10/27 02:47:35;;;;;;;9.27;3.90;;;14.80;99.90;;;;;;2617682;31;20819;-78
2022/10/27 02:53:23;;;;;;;6.43;4.23;;;14.50;99.90;;;;;;2617444;54;20135;-80
2022/10/27 02:59:11;;;;;;;8.43;4.00;;;14.10;99.90;;;;;;2616630;54;20115;-76
2022/10/27 03:04:58;;;;;;;5.67;3.47;;;13.80;99.90;;;;;;2615232;54;20131;-77
2022/10/27 03:10:46;;;;;;;7.07;3.23;;;14.00;99.90;;;;;;2614779;47;20615;-76
2022/10/27 03:16:34;;;;;;;5.17;3.53;;;14.10;99.90;;;;;;2615142;54;20162;-78
2022/10/27 03:22:22;;;;;;;4.13;3.40;;;14.30;99.90;;;;;;2615327;54;20131;-76
2022/10/27 03:28:11;;;;;;;5.47;3.50;;;13.90;99.90;;;;;;2615436;54;20134;-78
2022/10/27 03:37:27;;;;;;;6.60;3.97;;;14.40;99.90;;;;;;2616547;54;20375;-78
2022/10/27 03:43:15;;;;;;;19.90;4.40;;;14.30;99.90;;;;;;2616435;54;20363;-78
2022/10/27 03:49:02;;;;;;;8.53;3.10;;;14.50;99.90;;;;;;2617351;54;20411;-78
2022/10/27 03:54:50;;;;;;;6.03;2.87;;;14.30;99.90;;;;;;2616336;54;20130;-78
2022/10/27 04:00:38;;;;;;;9.50;3.80;;;14.40;99.90;;;;;;2615485;54;20258;-78
2022/10/27 04:06:26;;;;;;;9.83;3.10;;;14.40;99.90;;;;;;2617252;54;20426;-79
2022/10/27 04:12:13;;;;;;;7.40;3.70;;;14.40;99.90;;;;;;2616852;54;20667;-79
2022/10/27 04:18:01;;;;;;;8.63;3.27;;;14.40;99.90;;;;;;2616937;54;20146;-79
2022/10/27 04:23:49;;;;;;;6.57;4.07;;;14.20;99.90;;;;;;2617279;54;20166;-80
2022/10/27 04:29:37;;;;;;;5.17;2.73;;;14.30;99.90;;;;;;2616799;39;20526;-79
2022/10/27 04:32:55;;;;;;;5.33;3.20;;;14.30;99.90;;;;;;2616107;47;20423;-79
2022/10/27 04:35:21;;;;;;;4.07;2.63;;;14.40;99.90;;;;;;2616525;54;20151;-79
2022/10/27 04:41:08;;;;;;;7.63;3.83;;;14.30;99.90;;;;;;2616189;54;20743;-79
2022/10/27 04:46:56;;;;;;;3.93;3.00;;;14.10;99.90;;;;;;2617392;54;20654;-78
2022/10/27 04:53:01;;;;;;;7.33;3.10;;;13.90;99.90;;;;;;2615936;54;20147;-78
2022/10/27 04:58:49;;;;;;;6.80;3.23;;;14.00;99.90;;;;;;2615486;54;20402;-80
2022/10/27 05:04:37;;;;;;;9.03;3.07;;;13.50;99.90;;;;;;2616591;54;20134;-79
2022/10/27 05:10:24;;;;;;;4.10;3.33;;;13.00;99.90;;;;;;2615492;54;20146;-79
2022/10/27 05:16:12;;;;;;;4.00;2.80;;;12.70;99.90;;;;;;2615994;46;20149;-80
2022/10/27 05:22:00;;;;;;;6.47;3.43;;;12.60;99.90;;;;;;2617302;54;20146;-79
2022/10/27 05:27:48;;;;;;;5.93;3.30;;;12.50;99.90;;;;;;2615246;54;20115;-79
2022/10/27 05:37:28;;;;;;;8.13;4.37;;;12.30;99.90;;;;;;2614525;54;20920;-79
2022/10/27 05:43:16;;;;;;;7.03;4.03;;;12.00;99.90;;;;;;2614785;54;20383;-82
2022/10/27 05:49:04;;;;;;;8.10;4.27;;;11.80;99.90;;;;;;2615728;54;20165;-79
2022/10/27 05:54:52;;;;;;;8.57;4.73;;;11.70;99.90;;;;;;2615179;54;20130;-79
2022/10/27 06:00:39;;;;;;;7.67;5.00;;;11.70;99.90;;;;;;2616107;39;20633;-78
2022/10/27 06:06:27;;;;;;;14.00;5.30;;;11.60;99.90;;;;;;2615650;54;20127;-78
2022/10/27 06:12:15;;;;;;;7.67;4.83;;;11.50;99.90;;;;;;2616481;54;20125;-79
2022/10/27 06:18:03;;;;;;;7.03;4.97;;;11.50;99.90;;;;;;2613337;54;20145;-79
2022/10/27 06:23:50;;;;;;;9.27;5.67;;;11.40;99.90;;;;;;2614108;54;20134;-80
2022/10/27 06:29:38;;;;;;;10.80;5.60;;;11.40;99.90;;;;;;2613641;54;20118;-78
2022/10/27 06:32:56;;;;;;;10.90;5.57;;;11.50;99.90;;;;;;2612755;47;20423;-79
2022/10/27 06:35:22;;;;;;;10.77;5.13;;;11.40;99.90;;;;;;2615411;54;20158;-79
2022/10/27 06:41:09;;;;;;;9.93;7.00;;;11.40;99.90;;;;;;2615241;39;20535;-78
2022/10/27 06:46:58;;;;;;;9.27;6.03;;;11.40;99.90;;;;;;2613312;54;20139;-78
2022/10/27 06:52:45;;;;;;;8.90;5.43;;;11.50;99.90;;;;;;2613776;54;20395;-79
2022/10/27 06:58:38;;;;;;;9.33;5.93;;;11.60;99.90;;;;;;2615896;54;20146;-79
2022/10/27 07:04:25;;;;;;;11.47;6.97;;;11.70;99.90;;;;;;2616215;54;20504;-80
2022/10/27 07:10:14;;;;;;;11.23;6.53;;;12.00;99.90;;;;;;2615457;54;20210;-80
2022/10/27 07:16:01;;;;;;;7.93;4.80;;;12.70;99.90;;;;;;2617865;54;20382;-82
2022/10/27 07:21:49;;;;;;;5.07;3.07;;;14.40;99.90;;;;;;2617742;54;20130;-79
2022/10/27 07:27:37;;;;;;;4.50;2.80;;;16.00;99.90;;;;;;2617031;54;20150;-79
2022/10/27 07:37:27;;;;;;;7.53;4.63;;;18.00;99.90;;;;;;2617636;54;20425;-79
2022/10/27 07:43:15;;;;;;;8.70;5.10;;;19.00;99.90;;;;;;2617031;54;21289;-81
2022/10/27 07:49:03;;;;;;;5.30;4.80;;;19.00;99.90;;;;;;2616627;54;20638;-81
2022/10/27 07:54:51;;;;;;;6.97;5.07;;;19.60;99.60;;;;;;2615615;54;20135;-80
2022/10/27 08:00:41;;;;;;;7.80;5.20;;;19.80;93.00;;;;;;2616820;54;20134;-80
2022/10/27 08:06:29;;;;;;;7.70;4.93;;;19.90;95.70;;;;;;2617942;39;20856;-80
2022/10/27 08:12:17;;;;;;;6.53;5.00;;;20.20;88.60;;;;;;2616751;54;20158;-80
2022/10/27 08:18:06;;;;;;;5.37;5.07;;;20.50;72.20;;;;;;2616424;54;20495;-80
2022/10/27 08:23:53;;;;;;;6.33;5.83;;;21.00;74.30;;;;;;2615786;54;20382;-79
2022/10/27 08:29:41;;;;;;;7.03;5.20;;;21.80;68.10;;;;;;2616777;54;20123;-80
2022/10/27 08:32:56;;;;;;;6.23;5.50;;;22.30;56.10;;;;;;2616661;54;20420;-79
2022/10/27 08:35:23;;;;;;;6.10;5.60;;;21.80;57.40;;;;;;2615625;54;20166;-79
2022/10/27 08:47:59;;;;;;;5.67;5.17;;;21.30;54.60;;;;;;2616647;39;20466;-80
2022/10/27 08:53:49;;;;;;;5.57;5.17;;;22.50;51.40;;;;;;2615835;54;20443;-80
2022/10/27 08:59:36;;;;;;;6.90;6.20;;;22.20;49.90;;;;;;2614540;54;20391;-81
2022/10/27 09:18:43;;;;;;;6.37;5.97;;;22.90;44.70;;;;;;2615477;54;20415;-77
2022/10/27 09:24:36;;;;;;;5.87;5.57;;;23.10;43.00;;;;;;2615582;54;20375;-78
2022/10/27 09:30:24;;;;;;;6.17;5.67;;;22.90;44.10;;;;;;2613765;54;20431;-77
2022/10/27 09:32:57;;;;;;;6.70;6.30;;;22.90;42.60;;;;;;2613919;54;20404;-77
2022/10/27 09:35:29;;;;;;;6.37;5.87;;;23.20;42.80;;;;;;2613877;54;20490;-77
2022/10/27 09:41:17;;;;;;;6.50;6.00;;;24.90;37.50;;;;;;2615179;54;20402;-78
2022/10/27 09:47:05;;;;;;;6.67;6.17;;;23.40;38.20;;;;;;2614204;54;20126;-78
2022/10/27 09:52:53;;;;;;;6.20;5.90;;;23.30;37.60;;;;;;2615787;54;20509;-77
2022/10/27 09:58:44;;;;;;;6.60;6.10;;;24.20;37.10;;;;;;2616229;54;20415;-78
2022/10/27 10:24:24;;;;;;;6.00;5.60;;;23.60;33.20;;;;;;2616694;39;20753;-77
2022/10/27 10:30:18;;;;;;;6.80;6.30;;;24.00;33.90;;;;;;2615747;54;20426;-78
2022/10/27 10:32:58;;;;;;;9.20;6.70;;;24.00;35.00;;;;;;2616745;54;20441;-78
2022/10/27 10:35:44;;;;;;;7.07;6.37;;;23.30;36.40;;;;;;2617222;39;20954;-77
2022/10/27 10:41:32;;;;;;;8.87;6.70;;;23.40;37.70;;;;;;2617766;54;20384;-78
2022/10/27 10:47:27;;;;;;;6.70;6.30;;;23.40;37.60;;;;;;2616040;54;20147;-78
2022/10/27 10:53:27;;;;;;;7.07;6.37;;;24.40;35.10;;;;;;2617388;54;20418;-78
2022/10/27 10:59:17;;;;;;;11.23;6.70;;;24.20;35.70;;;;;;2614903;54;20411;-78
2022/10/27 11:11:33;;;;;;;7.60;7.03;;;24.10;34.90;;;;;;2617386;54;20391;-77
2022/10/27 11:17:24;;;;;;;7.50;6.90;;;25.20;33.70;;;;;;2617223;54;20466;-78
2022/10/27 11:29:51;;;;;;;7.63;7.13;;;24.70;32.90;;;;;;2616676;54;20352;-77
2022/10/27 12:03:07;;;;;;;7.77;7.00;;;25.60;33.00;;;;;;2615418;54;20414;-78
2022/10/27 12:21:43;;;;;;;7.80;7.10;;;25.10;31.40;;;;;;2615937;54;20467;-79
2022/10/27 12:37:42;;;;;;;7.60;7.10;;;26.10;30.10;;;;;;2615338;54;20428;-78
2022/10/27 12:50:26;;;;;;;8.40;7.80;;;25.80;30.00;;;;;;2613962;54;20420;-79
2022/10/27 13:00:25;;;;;;;11.83;7.80;;;26.20;30.20;;;;;;2615221;54;20426;-78
2022/10/27 13:12:55;;;;;;;9.20;8.60;;;24.90;33.30;;;;;;2615337;54;20387;-79
2022/10/27 13:31:41;;;;;;;8.30;7.60;;;23.20;37.90;;;;;;2615000;54;20406;-79
2022/10/27 13:37:38;;;;;;;9.10;8.30;;;23.60;37.70;;;;;;2616087;54;20157;-79
2022/10/27 13:43:32;;;;;;;9.60;7.03;;;23.80;37.60;;;;;;2617891;54;20411;-79
2022/10/27 13:49:41;;;;;;;8.70;7.90;;;24.50;36.20;;;;;;2615501;54;20430;-78
2022/10/27 13:55:31;;;;;;;9.27;8.60;;;23.50;39.70;;;;;;2616998;39;20792;-79
2022/10/27 14:07:52;;;;;;;9.07;8.30;;;24.20;40.20;;;;;;2616411;54;20948;-78
2022/10/27 14:13:44;;;;;;;9.33;8.40;;;23.10;41.80;;;;;;2616789;54;20998;-77
2022/10/27 14:19:36;;;;;;;11.53;7.93;;;24.10;40.80;;;;;;2616998;54;20422;-77
2022/10/27 14:25:26;;;;;;;8.50;7.90;;;24.00;41.20;;;;;;2617039;54;20434;-78
2022/10/27 14:31:19;;;;;;;12.53;9.10;;;23.20;43.80;;;;;;2615903;54;20918;-78
2022/10/27 14:40:37;;;;;;;8.83;8.20;;;22.70;47.70;;;;;;2617118;54;20387;-77
2022/10/27 14:46:28;;;;;;;10.30;8.90;;;22.30;50.70;;;;;;2615027;54;21022;-77
2022/10/27 14:52:28;;;;;;;9.60;8.70;;;22.10;52.20;;;;;;2617215;54;20355;-78
2022/10/27 14:58:21;;;;;;;8.40;7.70;;;21.90;54.10;;;;;;2615437;54;20491;-76
2022/10/27 15:10:42;;;;;;;8.90;8.00;;;21.70;59.40;;;;;;2616684;54;20386;-77
2022/10/27 15:16:32;;;;;;;9.13;8.30;;;21.60;64.50;;;;;;2615609;54;20391;-78
2022/10/27 15:22:21;;;;;;;10.07;9.03;;;21.50;67.30;;;;;;2615558;54;20528;-78
2022/10/27 15:28:10;;;;;;;13.80;8.10;;;21.40;70.30;;;;;;2616530;54;20414;-78
2022/10/27 15:34:01;;;;;;;9.80;8.93;;;21.30;73.20;;;;;;2616169;54;20511;-78
2022/10/27 15:39:50;;;;;;;8.70;7.90;;;21.20;75.50;;;;;;2616118;54;21598;-77
2022/10/27 15:45:40;;;;;;;13.60;9.40;;;21.20;77.80;;;;;;2617101;54;20403;-78
2022/10/27 15:58:35;;;;;;;9.97;8.43;;;21.00;83.40;;;;;;2611021;54;20391;-77
2022/10/27 16:02:00;;;;;;;13.23;8.30;;;21.00;83.80;;;;;;2612774;54;20415;-77
2022/10/27 16:07:47;;;;;;;16.90;9.30;;;20.90;86.50;;;;;;2614156;54;20399;-77
2022/10/27 16:13:34;;;;;;;13.13;8.30;;;20.90;86.40;;;;;;2615888;54;20170;-78
2022/10/27 16:19:22;;;;;;;9.30;7.73;;;20.90;87.10;;;;;;2615622;39;20781;-79
2022/10/27 16:25:18;;;;;;;9.40;8.40;;;20.90;86.50;;;;;;2614040;54;20154;-78
2022/10/27 16:34:27;;;;;;;10.50;8.43;;;20.80;88.40;;;;;;2616596;54;20886;-78
2022/10/27 16:40:16;;;;;;;10.40;8.20;;;20.70;90.50;;;;;;2616436;54;20123;-78
2022/10/27 16:46:04;;;;;;;8.87;8.00;;;20.70;91.10;;;;;;2615423;54;20423;-78
2022/10/27 16:51:52;;;;;;;16.20;8.50;;;20.80;90.60;;;;;;2614772;54;20384;-78
2022/10/27 16:57:40;;;;;;;8.77;8.07;;;20.60;92.30;;;;;;2616346;54;20207;-80
2022/10/27 17:03:28;;;;;;;8.73;7.83;;;20.50;93.90;;;;;;2615350;54;20367;-80
2022/10/27 17:09:16;;;;;;;17.03;8.43;;;20.50;94.70;;;;;;2614412;54;20135;-77
2022/10/27 17:15:04;;;;;;;9.70;7.47;;;20.60;93.90;;;;;;2615885;54;20186;-77
2022/10/27 17:20:55;;;;;;;10.07;8.57;;;20.70;92.70;;;;;;2615827;54;20868;-78
2022/10/27 17:26:43;;;;;;;15.43;9.77;;;20.70;92.70;;;;;;2613729;54;20398;-77
2022/10/27 17:32:31;;;;;;;10.37;8.20;;;20.70;93.60;;;;;;2614726;54;20128;-76
2022/10/27 17:35:49;;;;;;;10.50;9.40;;;20.70;93.50;;;;;;2612797;46;20445;-79
2022/10/27 17:38:15;;;;;;;10.03;8.70;;;20.70;94.10;;;;;;2614896;54;20147;-77
2022/10/27 17:44:03;;;;;;;10.80;8.87;;;20.70;94.60;;;;;;2615831;54;20123;-77
2022/10/27 17:49:50;;;;;;;9.27;8.47;;;20.70;95.30;;;;;;2614124;39;20702;-77
2022/10/27 17:55:38;;;;;;;10.20;9.00;;;20.60;95.60;;;;;;2615686;54;20670;-77
2022/10/27 18:01:28;;;;;;;9.00;8.03;;;20.70;95.40;;;;;;2615987;46;20138;-77
2022/10/27 18:04:32;;;;;;;9.23;8.47;;;20.70;95.10;;;;;;2614797;54;20442;-77
2022/10/27 18:06:58;;;;;;;9.60;8.20;;;20.80;94.40;;;;;;2615701;47;20411;-77
2022/10/27 18:12:46;;;;;;;14.60;8.67;;;20.80;94.80;;;;;;2615076;54;20400;-78
2022/10/27 18:18:33;;;;;;;13.40;9.67;;;20.60;95.70;;;;;;2616301;54;20127;-78
2022/10/27 18:24:21;;;;;;;11.83;8.73;;;20.60;96.40;;;;;;2615967;39;20532;-77
2022/10/27 18:30:10;;;;;;;14.23;12.00;;;20.60;96.10;;;;;;2615946;54;20150;-78
2022/10/27 18:40:18;;;;;;;10.00;9.00;;;20.30;99.90;;;;;;2616589;54;20430;-77
2022/10/27 18:46:10;;;;;;;13.40;8.63;;;20.20;99.90;;;;;;2614831;54;20423;-78
2022/10/27 18:51:58;;;;;;;9.90;9.00;;;20.20;99.90;;;;;;2614357;54;20463;-77
2022/10/27 18:57:46;;;;;;;11.07;8.50;;;20.00;99.90;;;;;;2614142;54;20138;-78
2022/10/27 19:03:34;;;;;;;10.90;8.47;;;20.00;99.90;;;;;;2615523;54;20739;-78
2022/10/27 19:09:23;;;;;;;10.70;8.10;;;19.80;99.90;;;;;;2616344;54;20154;-77
2022/10/27 19:15:10;;;;;;;14.03;7.87;;;19.80;99.90;;;;;;2615786;54;20446;-79
2022/10/27 19:21:00;;;;;;;8.90;8.00;;;19.50;99.90;;;;;;2614302;54;20114;-79
2022/10/27 19:26:48;;;;;;;10.97;8.63;;;19.20;99.90;;;;;;2613713;54;20391;-76
2022/10/27 19:29:14;;;;;;;10.47;9.40;;;19.20;99.90;;;;;;2613932;31;20877;-77
2022/10/27 19:31:39;;;;;;;9.60;8.80;;;19.20;99.90;;;;;;2612294;47;20171;-78
2022/10/27 19:40:49;;;;;;;8.77;7.90;;;18.80;99.90;;;;;;2614347;54;20415;-77
2022/10/27 19:46:37;;;;;;;15.47;9.33;;;19.10;99.90;;;;;;2615629;54;20150;-77
2022/10/27 19:52:27;;;;;;;13.40;9.20;;;19.20;99.90;;;;;;2615164;54;20395;-77
2022/10/27 19:58:15;;;;;;;15.70;9.30;;;19.30;99.90;;;;;;2615991;54;20423;-77
2022/10/27 20:04:08;;;;;;;9.83;8.30;;;19.40;99.90;;;;;;2616165;54;20178;-77
2022/10/27 20:09:55;;;;;;;14.87;8.83;;;19.30;99.90;;;;;;2616704;54;20382;-77
2022/10/27 20:15:43;;;;;;;14.10;8.50;;;19.30;99.90;;;;;;2616306;54;20122;-80
2022/10/27 20:21:31;;;;;;;10.00;8.53;;;19.20;99.90;;;;;;2615450;54;20121;-80
2022/10/27 20:27:20;;;;;;;10.80;8.70;;;19.20;99.90;;;;;;2616618;54;20391;-78
2022/10/27 20:33:08;;;;;;;12.70;8.53;;;19.20;99.90;;;;;;2616340;54;20383;-78
2022/10/27 20:36:17;;;;;;;8.63;7.93;;;19.20;99.90;;;;;;2615186;54;20948;-78
2022/10/27 20:38:43;;;;;;;12.03;9.60;;;19.30;99.90;;;;;;2616539;54;20151;-78
2022/10/27 20:44:31;;;;;;;12.40;8.53;;;19.30;99.90;;;;;;2616307;54;20379;-78
2022/10/27 20:50:19;;;;;;;10.97;8.70;;;19.40;99.90;;;;;;2615774;54;20161;-78
2022/10/27 20:56:12;;;;;;;12.50;9.37;;;19.40;99.90;;;;;;2615490;39;20547;-77
2022/10/27 21:02:00;;;;;;;15.93;9.37;;;19.30;99.90;;;;;;2616630;54;20414;-80
2022/10/27 21:07:47;;;;;;;20.10;10.10;;;19.30;99.90;;;;;;2617171;54;20127;-81
2022/10/27 21:13:35;;;;;;;16.43;9.90;;;19.40;99.90;;;;;;2617829;54;20142;-79
2022/10/27 21:19:23;;;;;;;15.83;8.30;;;19.40;99.90;;;;;;2617466;54;20194;-79
2022/10/27 21:25:11;;;;;;;10.03;9.13;;;19.30;99.90;;;;;;2616245;54;20138;-79
2022/10/27 21:31:07;;;;;;;13.83;8.67;;;19.40;99.90;;;;;;2617752;54;20133;-79
2022/10/27 21:47:12;;;;;;;16.57;9.53;;;19.30;99.90;;;;;;2615469;54;20386;-78
2022/10/27 21:53:00;;;;;;;11.03;8.30;;;19.40;99.90;;;;;;2615374;54;20968;-80
2022/10/27 21:58:47;;;;;;;9.60;8.20;;;19.40;99.90;;;;;;2614733;54;20151;-77
2022/10/27 22:04:34;;;;;;;17.83;8.00;;;19.40;99.90;;;;;;2614792;54;20196;-77
2022/10/27 22:10:21;;;;;;;12.27;9.40;;;19.50;99.90;;;;;;2614061;54;20239;-77
2022/10/27 22:16:14;;;;;;;11.10;9.13;;;19.50;99.90;;;;;;2614943;54;20154;-76
2022/10/27 22:22:03;;;;;;;10.10;7.60;;;19.70;99.90;;;;;;2616153;54;20499;-75
2022/10/27 22:27:50;;;;;;;9.30;6.90;;;19.60;99.90;;;;;;2616332;54;20403;-77
2022/10/27 22:33:39;;;;;;;12.67;8.73;;;19.60;99.90;;;;;;2616582;54;20130;-77
2022/10/27 22:53:20;;;;;;;8.10;7.40;;;19.70;99.90;;;;;;2614631;54;20560;-77
2022/10/27 22:59:08;;;;;;;11.50;8.43;;;19.60;99.90;;;;;;2615041;54;20130;-77
2022/10/27 23:04:56;;;;;;;8.87;7.97;;;19.60;99.90;;;;;;2615670;54;20440;-77
2022/10/27 23:10:43;;;;;;;14.20;8.60;;;19.70;99.90;;;;;;2615588;54;20174;-76
2022/10/27 23:16:31;;;;;;;9.50;8.23;;;19.80;99.90;;;;;;2616149;54;20134;-76
2022/10/27 23:22:19;;;;;;;10.70;8.33;;;20.00;99.90;;;;;;2616391;54;20427;-76
2022/10/27 23:28:07;;;;;;;10.27;8.90;;;20.00;99.90;;;;;;2617128;54;20134;-76
2022/10/27 23:33:57;;;;;;;9.00;8.20;;;20.10;99.90;;;;;;2616764;39;20546;-76
2022/10/27 23:43:07;;;;;;;9.43;8.30;;;20.20;99.90;;;;;;2617333;54;20406;-77
2022/10/27 23:48:56;;;;;;;17.90;8.63;;;20.30;99.90;;;;;;2617636;39;20205;-77
2022/10/27 23:54:44;;;;;;;10.07;7.90;;;20.20;99.90;;;;;;2617708;54;20423;-78
